sensor_id;sensor_type;location;lat;lon;timestamp;P1;durP1;ratioP1;P2;durP2;ratioP2
1328;SDS011;658;48.820;9.354;2023-12-28T00:03:06;2.00;;;1.90;;
1328;SDS011;658;48.820;9.354;2023-12-28T00:07:06;2.27;;;2.10;;
1328;SDS011;658;48.820;9.354;2023-12-28T00:11:09;2.10;;;2.00;;
1328;SDS011;658;48.820;9.354;2023-12-28T00:15:10;1.90;;;1.80;;
1328;SDS011;658;48.820;9.354;2023-12-28T00:19:10;2.00;;;1.90;;
1328;SDS011;658;48.820;9.354;2023-12-28T00:23:11;2.27;;;2.10;;
1328;SDS011;658;48.820;9.354;2023-12-28T00:27:12;2.10;;;2.00;;
1328;SDS011;658;48.820;9.354;2023-12-28T00:31:12;2.30;;;2.20;;
1328;SDS011;658;48.820;9.354;2023-12-28T00:35:15;1.83;;;1.73;;
1328;SDS011;658;48.820;9.354;2023-12-28T00:39:15;2.03;;;1.93;;
1328;SDS011;658;48.820;9.354;2023-12-28T00:43:16;1.70;;;1.60;;
1328;SDS011;658;48.820;9.354;2023-12-28T00:47:17;2.00;;;1.90;;
1328;SDS011;658;48.820;9.354;2023-12-28T00:51:20;2.10;;;2.00;;
1328;SDS011;658;48.820;9.354;2023-12-28T00:55:21;1.87;;;1.77;;
1328;SDS011;658;48.820;9.354;2023-12-28T00:59:21;2.00;;;1.90;;
1328;SDS011;658;48.820;9.354;2023-12-28T01:03:22;2.03;;;1.93;;
1328;SDS011;658;48.820;9.354;2023-12-28T01:07:23;2.17;;;2.00;;
1328;SDS011;658;48.820;9.354;2023-12-28T01:11:24;2.00;;;1.90;;
1328;SDS011;658;48.820;9.354;2023-12-28T01:15:24;2.50;;;2.40;;
1328;SDS011;658;48.820;9.354;2023-12-28T01:19:25;1.90;;;1.80;;
1328;SDS011;658;48.820;9.354;2023-12-28T01:23:25;2.40;;;2.30;;
1328;SDS011;658;48.820;9.354;2023-12-28T01:27:26;2.10;;;2.00;;
1328;SDS011;658;48.820;9.354;2023-12-28T01:31:27;2.03;;;1.93;;
1328;SDS011;658;48.820;9.354;2023-12-28T01:35:29;2.00;;;1.90;;
1328;SDS011;658;48.820;9.354;2023-12-28T01:39:30;2.00;;;1.90;;
1328;SDS011;658;48.820;9.354;2023-12-28T01:43:30;1.90;;;1.80;;
1328;SDS011;658;48.820;9.354;2023-12-28T01:47:31;2.43;;;2.33;;
1328;SDS011;658;48.820;9.354;2023-12-28T01:51:32;2.10;;;1.90;;
1328;SDS011;658;48.820;9.354;2023-12-28T01:55:33;2.00;;;1.90;;
1328;SDS011;658;48.820;9.354;2023-12-28T01:59:36;2.03;;;1.93;;
1328;SDS011;658;48.820;9.354;2023-12-28T02:03:37;1.90;;;1.80;;
1328;SDS011;658;48.820;9.354;2023-12-28T02:07:38;2.07;;;1.97;;
1328;SDS011;658;48.820;9.354;2023-12-28T02:11:39;1.70;;;1.60;;
1328;SDS011;658;48.820;9.354;2023-12-28T02:15:40;2.20;;;2.10;;
1328;SDS011;658;48.820;9.354;2023-12-28T02:19:50;1.90;;;1.80;;
1328;SDS011;658;48.820;9.354;2023-12-28T02:23:54;2.13;;;2.00;;
1328;SDS011;658;48.820;9.354;2023-12-28T02:27:54;2.33;;;2.17;;
1328;SDS011;658;48.820;9.354;2023-12-28T02:31:58;2.20;;;2.10;;
1328;SDS011;658;48.820;9.354;2023-12-28T02:36:07;1.90;;;1.77;;
1328;SDS011;658;48.820;9.354;2023-12-28T02:40:12;2.00;;;1.80;;
1328;SDS011;658;48.820;9.354;2023-12-28T02:44:16;2.30;;;2.20;;
1328;SDS011;658;48.820;9.354;2023-12-28T02:48:17;1.80;;;1.70;;
1328;SDS011;658;48.820;9.354;2023-12-28T02:52:20;2.13;;;1.93;;
1328;SDS011;658;48.820;9.354;2023-12-28T02:56:21;1.93;;;1.83;;
1328;SDS011;658;48.820;9.354;2023-12-28T03:00:21;2.40;;;2.20;;
1328;SDS011;658;48.820;9.354;2023-12-28T03:04:22;2.03;;;1.93;;
1328;SDS011;658;48.820;9.354;2023-12-28T03:08:22;2.10;;;2.00;;
1328;SDS011;658;48.820;9.354;2023-12-28T03:12:23;1.80;;;1.70;;
1328;SDS011;658;48.820;9.354;2023-12-28T03:16:24;2.00;;;1.90;;
1328;SDS011;658;48.820;9.354;2023-12-28T03:20:24;1.70;;;1.60;;
1328;SDS011;658;48.820;9.354;2023-12-28T03:24:25;1.80;;;1.70;;
1328;SDS011;658;48.820;9.354;2023-12-28T03:28:28;1.70;;;1.60;;
1328;SDS011;658;48.820;9.354;2023-12-28T03:32:28;1.90;;;1.80;;
1328;SDS011;658;48.820;9.354;2023-12-28T03:36:31;1.70;;;1.60;;
1328;SDS011;658;48.820;9.354;2023-12-28T03:40:31;1.87;;;1.77;;
1328;SDS011;658;48.820;9.354;2023-12-28T03:44:32;1.80;;;1.70;;
1328;SDS011;658;48.820;9.354;2023-12-28T03:48:33;1.73;;;1.63;;
1328;SDS011;658;48.820;9.354;2023-12-28T03:52:35;1.63;;;1.53;;
1328;SDS011;658;48.820;9.354;2023-12-28T03:56:38;1.90;;;1.80;;
1328;SDS011;658;48.820;9.354;2023-12-28T04:00:41;1.90;;;1.80;;
1328;SDS011;658;48.820;9.354;2023-12-28T04:04:41;1.63;;;1.53;;
1328;SDS011;658;48.820;9.354;2023-12-28T04:08:42;1.67;;;1.57;;
1328;SDS011;658;48.820;9.354;2023-12-28T04:12:43;1.70;;;1.60;;
1328;SDS011;658;48.820;9.354;2023-12-28T04:16:46;1.87;;;1.77;;
1328;SDS011;658;48.820;9.354;2023-12-28T04:20:46;1.93;;;1.83;;
1328;SDS011;658;48.820;9.354;2023-12-28T04:24:47;1.90;;;1.80;;
1328;SDS011;658;48.820;9.354;2023-12-28T04:28:47;1.87;;;1.77;;
1328;SDS011;658;48.820;9.354;2023-12-28T04:32:48;1.70;;;1.60;;
1328;SDS011;658;48.820;9.354;2023-12-28T04:36:50;1.57;;;1.47;;
1328;SDS011;658;48.820;9.354;2023-12-28T04:40:52;1.63;;;1.53;;
1328;SDS011;658;48.820;9.354;2023-12-28T04:44:53;1.47;;;1.37;;
1328;SDS011;658;48.820;9.354;2023-12-28T04:48:53;1.70;;;1.60;;
1328;SDS011;658;48.820;9.354;2023-12-28T04:52:54;1.30;;;1.20;;
1328;SDS011;658;48.820;9.354;2023-12-28T04:56:54;1.67;;;1.57;;
1328;SDS011;658;48.820;9.354;2023-12-28T05:00:55;1.80;;;1.70;;
1328;SDS011;658;48.820;9.354;2023-12-28T05:04:55;1.50;;;1.40;;
1328;SDS011;658;48.820;9.354;2023-12-28T05:08:58;1.37;;;1.27;;
1328;SDS011;658;48.820;9.354;2023-12-28T05:12:59;1.67;;;1.57;;
1328;SDS011;658;48.820;9.354;2023-12-28T05:17:02;1.53;;;1.43;;
1328;SDS011;658;48.820;9.354;2023-12-28T05:21:02;1.83;;;1.73;;
1328;SDS011;658;48.820;9.354;2023-12-28T05:25:03;1.50;;;1.40;;
1328;SDS011;658;48.820;9.354;2023-12-28T05:29:04;1.50;;;1.40;;
1328;SDS011;658;48.820;9.354;2023-12-28T05:33:07;1.60;;;1.50;;
1328;SDS011;658;48.820;9.354;2023-12-28T05:37:08;1.73;;;1.63;;
1328;SDS011;658;48.820;9.354;2023-12-28T05:41:11;1.37;;;1.27;;
1328;SDS011;658;48.820;9.354;2023-12-28T05:45:14;1.60;;;1.50;;
1328;SDS011;658;48.820;9.354;2023-12-28T05:49:17;1.70;;;1.60;;
1328;SDS011;658;48.820;9.354;2023-12-28T05:53:17;1.60;;;1.50;;
1328;SDS011;658;48.820;9.354;2023-12-28T05:57:18;1.70;;;1.60;;
1328;SDS011;658;48.820;9.354;2023-12-28T06:01:19;1.83;;;1.73;;
1328;SDS011;658;48.820;9.354;2023-12-28T06:05:19;1.37;;;1.33;;
1328;SDS011;658;48.820;9.354;2023-12-28T06:09:20;1.60;;;1.50;;
1328;SDS011;658;48.820;9.354;2023-12-28T06:13:20;1.80;;;1.70;;
1328;SDS011;658;48.820;9.354;2023-12-28T06:17:21;1.70;;;1.60;;
1328;SDS011;658;48.820;9.354;2023-12-28T06:21:21;1.30;;;1.20;;
1328;SDS011;658;48.820;9.354;2023-12-28T06:25:24;1.70;;;1.60;;
1328;SDS011;658;48.820;9.354;2023-12-28T06:29:25;1.60;;;1.50;;
1328;SDS011;658;48.820;9.354;2023-12-28T06:33:25;1.43;;;1.33;;
1328;SDS011;658;48.820;9.354;2023-12-28T06:37:26;1.67;;;1.57;;
1328;SDS011;658;48.820;9.354;2023-12-28T06:41:27;1.60;;;1.50;;
1328;SDS011;658;48.820;9.354;2023-12-28T06:45:27;1.70;;;1.60;;
1328;SDS011;658;48.820;9.354;2023-12-28T06:49:28;1.90;;;1.80;;
1328;SDS011;658;48.820;9.354;2023-12-28T06:53:29;1.50;;;1.40;;
1328;SDS011;658;48.820;9.354;2023-12-28T06:57:29;1.70;;;1.60;;
1328;SDS011;658;48.820;9.354;2023-12-28T07:01:30;2.07;;;1.97;;
1328;SDS011;658;48.820;9.354;2023-12-28T07:05:30;1.70;;;1.60;;
1328;SDS011;658;48.820;9.354;2023-12-28T07:09:31;1.70;;;1.60;;
1328;SDS011;658;48.820;9.354;2023-12-28T07:13:31;2.00;;;1.90;;
1328;SDS011;658;48.820;9.354;2023-12-28T07:17:33;1.50;;;1.40;;
1328;SDS011;658;48.820;9.354;2023-12-28T07:21:33;1.50;;;1.40;;
1328;SDS011;658;48.820;9.354;2023-12-28T07:25:34;1.93;;;1.83;;
1328;SDS011;658;48.820;9.354;2023-12-28T07:29:34;1.90;;;1.80;;
1328;SDS011;658;48.820;9.354;2023-12-28T07:33:35;1.60;;;1.50;;
1328;SDS011;658;48.820;9.354;2023-12-28T07:37:36;1.97;;;1.87;;
1328;SDS011;658;48.820;9.354;2023-12-28T07:41:36;2.10;;;2.00;;
1328;SDS011;658;48.820;9.354;2023-12-28T07:45:37;1.50;;;1.40;;
1328;SDS011;658;48.820;9.354;2023-12-28T07:49:38;1.77;;;1.67;;
1328;SDS011;658;48.820;9.354;2023-12-28T07:53:43;1.40;;;1.30;;
1328;SDS011;658;48.820;9.354;2023-12-28T07:57:44;1.60;;;1.50;;
1328;SDS011;658;48.820;9.354;2023-12-28T08:01:47;2.30;;;2.10;;
1328;SDS011;658;48.820;9.354;2023-12-28T08:05:47;2.20;;;2.00;;
1328;SDS011;658;48.820;9.354;2023-12-28T08:09:48;1.70;;;1.60;;
1328;SDS011;658;48.820;9.354;2023-12-28T08:13:48;1.77;;;1.67;;
1328;SDS011;658;48.820;9.354;2023-12-28T08:17:51;1.97;;;1.87;;
1328;SDS011;658;48.820;9.354;2023-12-28T08:21:52;1.83;;;1.70;;
1328;SDS011;658;48.820;9.354;2023-12-28T08:25:52;2.10;;;2.00;;
1328;SDS011;658;48.820;9.354;2023-12-28T08:29:53;1.60;;;1.50;;
1328;SDS011;658;48.820;9.354;2023-12-28T08:33:53;1.77;;;1.67;;
1328;SDS011;658;48.820;9.354;2023-12-28T08:37:54;1.70;;;1.60;;
1328;SDS011;658;48.820;9.354;2023-12-28T08:41:55;2.00;;;1.90;;
1328;SDS011;658;48.820;9.354;2023-12-28T08:45:56;1.90;;;1.80;;
1328;SDS011;658;48.820;9.354;2023-12-28T08:49:56;1.70;;;1.60;;
1328;SDS011;658;48.820;9.354;2023-12-28T08:53:57;4.90;;;2.10;;
1328;SDS011;658;48.820;9.354;2023-12-28T08:57:57;1.93;;;1.80;;
1328;SDS011;658;48.820;9.354;2023-12-28T09:01:58;2.13;;;1.63;;
1328;SDS011;658;48.820;9.354;2023-12-28T09:06:01;2.27;;;1.60;;
1328;SDS011;658;48.820;9.354;2023-12-28T09:10:02;1.60;;;1.50;;
1328;SDS011;658;48.820;9.354;2023-12-28T09:14:03;2.20;;;2.10;;
1328;SDS011;658;48.820;9.354;2023-12-28T09:18:04;1.70;;;1.60;;
1328;SDS011;658;48.820;9.354;2023-12-28T09:22:04;1.80;;;1.43;;
1328;SDS011;658;48.820;9.354;2023-12-28T09:26:05;1.60;;;1.50;;
1328;SDS011;658;48.820;9.354;2023-12-28T09:30:06;1.70;;;1.60;;
1328;SDS011;658;48.820;9.354;2023-12-28T09:34:07;1.80;;;1.70;;
1328;SDS011;658;48.820;9.354;2023-12-28T09:38:08;1.80;;;1.70;;
1328;SDS011;658;48.820;9.354;2023-12-28T09:42:09;1.60;;;1.50;;
1328;SDS011;658;48.820;9.354;2023-12-28T09:46:19;2.77;;;1.80;;
1328;SDS011;658;48.820;9.354;2023-12-28T09:50:20;1.70;;;1.60;;
1328;SDS011;658;48.820;9.354;2023-12-28T09:54:26;2.10;;;1.90;;
1328;SDS011;658;48.820;9.354;2023-12-28T09:58:27;1.80;;;1.70;;
1328;SDS011;658;48.820;9.354;2023-12-28T10:02:29;2.00;;;1.90;;
1328;SDS011;658;48.820;9.354;2023-12-28T10:06:31;1.83;;;1.73;;
1328;SDS011;658;48.820;9.354;2023-12-28T10:10:31;2.40;;;1.70;;
1328;SDS011;658;48.820;9.354;2023-12-28T10:14:32;1.77;;;1.67;;
1328;SDS011;658;48.820;9.354;2023-12-28T10:18:34;2.20;;;2.00;;
1328;SDS011;658;48.820;9.354;2023-12-28T10:22:36;1.63;;;1.53;;
1328;SDS011;658;48.820;9.354;2023-12-28T10:26:37;1.70;;;1.60;;
1328;SDS011;658;48.820;9.354;2023-12-28T10:30:42;1.80;;;1.70;;
1328;SDS011;658;48.820;9.354;2023-12-28T10:34:43;1.67;;;1.53;;
1328;SDS011;658;48.820;9.354;2023-12-28T10:38:44;2.00;;;1.90;;
1328;SDS011;658;48.820;9.354;2023-12-28T10:46:57;1.77;;;1.67;;
1328;SDS011;658;48.820;9.354;2023-12-28T10:51:01;1.90;;;1.80;;
1328;SDS011;658;48.820;9.354;2023-12-28T10:55:23;2.13;;;1.80;;
1328;SDS011;658;48.820;9.354;2023-12-28T10:59:48;2.00;;;1.90;;
1328;SDS011;658;48.820;9.354;2023-12-28T11:04:06;1.80;;;1.70;;
1328;SDS011;658;48.820;9.354;2023-12-28T11:08:12;2.20;;;2.00;;
1328;SDS011;658;48.820;9.354;2023-12-28T11:12:16;2.00;;;1.90;;
1328;SDS011;658;48.820;9.354;2023-12-28T11:16:19;2.30;;;2.13;;
1328;SDS011;658;48.820;9.354;2023-12-28T11:20:21;1.80;;;1.70;;
1328;SDS011;658;48.820;9.354;2023-12-28T11:24:25;2.20;;;2.00;;
1328;SDS011;658;48.820;9.354;2023-12-28T11:28:28;2.10;;;1.90;;
1328;SDS011;658;48.820;9.354;2023-12-28T11:32:28;1.97;;;1.87;;
1328;SDS011;658;48.820;9.354;2023-12-28T11:36:47;2.10;;;1.90;;
1328;SDS011;658;48.820;9.354;2023-12-28T11:40:53;1.77;;;1.67;;
1328;SDS011;658;48.820;9.354;2023-12-28T11:44:57;1.97;;;1.83;;
1328;SDS011;658;48.820;9.354;2023-12-28T11:49:04;2.00;;;1.83;;
1328;SDS011;658;48.820;9.354;2023-12-28T11:53:08;2.33;;;2.13;;
1328;SDS011;658;48.820;9.354;2023-12-28T11:57:12;2.10;;;1.90;;
1328;SDS011;658;48.820;9.354;2023-12-28T12:01:12;2.67;;;2.10;;
1328;SDS011;658;48.820;9.354;2023-12-28T12:05:14;2.23;;;2.10;;
1328;SDS011;658;48.820;9.354;2023-12-28T12:09:15;5.10;;;2.30;;
1328;SDS011;658;48.820;9.354;2023-12-28T12:13:16;3.00;;;2.13;;
1328;SDS011;658;48.820;9.354;2023-12-28T12:17:17;2.93;;;2.07;;
1328;SDS011;658;48.820;9.354;2023-12-28T12:21:19;2.30;;;2.13;;
1328;SDS011;658;48.820;9.354;2023-12-28T12:25:19;2.67;;;2.47;;
1328;SDS011;658;48.820;9.354;2023-12-28T12:29:20;2.50;;;1.97;;
1328;SDS011;658;48.820;9.354;2023-12-28T12:33:21;2.40;;;2.20;;
1328;SDS011;658;48.820;9.354;2023-12-28T12:37:22;3.37;;;2.23;;
1328;SDS011;658;48.820;9.354;2023-12-28T12:41:23;2.80;;;2.60;;
1328;SDS011;658;48.820;9.354;2023-12-28T12:45:26;2.90;;;2.70;;
1328;SDS011;658;48.820;9.354;2023-12-28T12:49:27;2.30;;;2.20;;
1328;SDS011;658;48.820;9.354;2023-12-28T12:53:32;2.20;;;2.10;;
1328;SDS011;658;48.820;9.354;2023-12-28T12:57:39;3.37;;;3.07;;
1328;SDS011;658;48.820;9.354;2023-12-28T13:01:41;3.13;;;2.93;;
1328;SDS011;658;48.820;9.354;2023-12-28T13:05:42;3.70;;;3.00;;
1328;SDS011;658;48.820;9.354;2023-12-28T13:09:44;2.67;;;2.47;;
1328;SDS011;658;48.820;9.354;2023-12-28T13:13:45;3.00;;;2.80;;
1328;SDS011;658;48.820;9.354;2023-12-28T13:17:47;2.83;;;2.63;;
1328;SDS011;658;48.820;9.354;2023-12-28T13:21:48;3.60;;;3.30;;
1328;SDS011;658;48.820;9.354;2023-12-28T13:25:49;3.57;;;3.27;;
1328;SDS011;658;48.820;9.354;2023-12-28T13:29:52;3.40;;;3.10;;
1328;SDS011;658;48.820;9.354;2023-12-28T13:33:54;3.30;;;3.10;;
1328;SDS011;658;48.820;9.354;2023-12-28T13:37:55;3.77;;;3.47;;
1328;SDS011;658;48.820;9.354;2023-12-28T13:41:56;2.67;;;2.50;;
1328;SDS011;658;48.820;9.354;2023-12-28T13:45:56;2.50;;;2.30;;
1328;SDS011;658;48.820;9.354;2023-12-28T13:49:57;3.20;;;2.90;;
1328;SDS011;658;48.820;9.354;2023-12-28T13:53:59;3.90;;;3.50;;
1328;SDS011;658;48.820;9.354;2023-12-28T13:58:02;3.33;;;3.03;;
1328;SDS011;658;48.820;9.354;2023-12-28T14:02:04;3.20;;;2.97;;
1328;SDS011;658;48.820;9.354;2023-12-28T14:06:07;3.50;;;3.20;;
1328;SDS011;658;48.820;9.354;2023-12-28T14:10:10;3.20;;;3.00;;
1328;SDS011;658;48.820;9.354;2023-12-28T14:14:11;3.57;;;3.27;;
1328;SDS011;658;48.820;9.354;2023-12-28T14:18:11;3.40;;;3.20;;
1328;SDS011;658;48.820;9.354;2023-12-28T14:22:12;4.20;;;3.87;;
1328;SDS011;658;48.820;9.354;2023-12-28T14:26:13;3.90;;;3.60;;
1328;SDS011;658;48.820;9.354;2023-12-28T14:30:15;3.47;;;3.27;;
1328;SDS011;658;48.820;9.354;2023-12-28T14:34:18;3.47;;;3.27;;
1328;SDS011;658;48.820;9.354;2023-12-28T14:38:19;4.47;;;3.50;;
1328;SDS011;658;48.820;9.354;2023-12-28T14:42:22;3.53;;;3.33;;
1328;SDS011;658;48.820;9.354;2023-12-28T14:46:23;3.40;;;3.20;;
1328;SDS011;658;48.820;9.354;2023-12-28T14:50:24;3.63;;;3.33;;
1328;SDS011;658;48.820;9.354;2023-12-28T14:54:25;3.37;;;3.07;;
1328;SDS011;658;48.820;9.354;2023-12-28T14:58:26;3.53;;;3.23;;
1328;SDS011;658;48.820;9.354;2023-12-28T15:02:26;3.60;;;3.30;;
1328;SDS011;658;48.820;9.354;2023-12-28T15:06:27;3.60;;;3.30;;
1328;SDS011;658;48.820;9.354;2023-12-28T15:10:28;3.83;;;3.57;;
1328;SDS011;658;48.820;9.354;2023-12-28T15:14:29;3.53;;;3.30;;
1328;SDS011;658;48.820;9.354;2023-12-28T15:18:30;3.80;;;3.53;;
1328;SDS011;658;48.820;9.354;2023-12-28T15:22:32;3.50;;;3.30;;
1328;SDS011;658;48.820;9.354;2023-12-28T15:26:32;3.87;;;3.57;;
1328;SDS011;658;48.820;9.354;2023-12-28T15:30:33;3.20;;;3.00;;
1328;SDS011;658;48.820;9.354;2023-12-28T15:34:36;3.20;;;2.83;;
1328;SDS011;658;48.820;9.354;2023-12-28T15:38:39;3.57;;;3.27;;
1328;SDS011;658;48.820;9.354;2023-12-28T15:42:40;3.60;;;3.30;;
1328;SDS011;658;48.820;9.354;2023-12-28T15:46:40;2.90;;;2.70;;
1328;SDS011;658;48.820;9.354;2023-12-28T15:50:41;3.37;;;3.10;;
1328;SDS011;658;48.820;9.354;2023-12-28T15:54:44;3.27;;;3.07;;
1328;SDS011;658;48.820;9.354;2023-12-28T15:58:45;3.30;;;3.00;;
1328;SDS011;658;48.820;9.354;2023-12-28T16:02:47;3.33;;;3.10;;
1328;SDS011;658;48.820;9.354;2023-12-28T16:06:50;2.93;;;2.73;;
1328;SDS011;658;48.820;9.354;2023-12-28T16:10:50;3.03;;;2.83;;
1328;SDS011;658;48.820;9.354;2023-12-28T16:14:51;3.03;;;2.80;;
1328;SDS011;658;48.820;9.354;2023-12-28T16:18:52;2.90;;;2.70;;
1328;SDS011;658;48.820;9.354;2023-12-28T16:22:53;2.87;;;2.60;;
1328;SDS011;658;48.820;9.354;2023-12-28T16:26:54;3.30;;;3.03;;
1328;SDS011;658;48.820;9.354;2023-12-28T16:30:55;3.20;;;2.93;;
1328;SDS011;658;48.820;9.354;2023-12-28T16:34:55;2.77;;;2.57;;
1328;SDS011;658;48.820;9.354;2023-12-28T16:38:56;3.47;;;3.17;;
1328;SDS011;658;48.820;9.354;2023-12-28T16:42:56;2.70;;;2.50;;
1328;SDS011;658;48.820;9.354;2023-12-28T16:46:57;4.00;;;2.60;;
1328;SDS011;658;48.820;9.354;2023-12-28T16:50:58;2.50;;;2.30;;
1328;SDS011;658;48.820;9.354;2023-12-28T16:55:01;2.60;;;2.20;;
1328;SDS011;658;48.820;9.354;2023-12-28T16:59:02;2.53;;;2.33;;
1328;SDS011;658;48.820;9.354;2023-12-28T17:03:03;2.80;;;2.60;;
1328;SDS011;658;48.820;9.354;2023-12-28T17:07:04;3.10;;;2.80;;
1328;SDS011;658;48.820;9.354;2023-12-28T17:11:05;2.30;;;2.10;;
1328;SDS011;658;48.820;9.354;2023-12-28T17:15:08;2.50;;;2.30;;
1328;SDS011;658;48.820;9.354;2023-12-28T17:19:12;3.60;;;2.57;;
1328;SDS011;658;48.820;9.354;2023-12-28T17:27:18;2.53;;;2.20;;
1328;SDS011;658;48.820;9.354;2023-12-28T17:31:28;2.40;;;2.20;;
1328;SDS011;658;48.820;9.354;2023-12-28T17:35:33;8.53;;;2.10;;
1328;SDS011;658;48.820;9.354;2023-12-28T17:39:34;2.20;;;2.00;;
1328;SDS011;658;48.820;9.354;2023-12-28T17:47:51;2.40;;;2.20;;
1328;SDS011;658;48.820;9.354;2023-12-28T17:51:59;2.30;;;2.10;;
1328;SDS011;658;48.820;9.354;2023-12-28T17:56:03;2.40;;;2.13;;
1328;SDS011;658;48.820;9.354;2023-12-28T18:00:04;2.37;;;2.17;;
1328;SDS011;658;48.820;9.354;2023-12-28T18:04:05;2.80;;;2.10;;
1328;SDS011;658;48.820;9.354;2023-12-28T18:08:08;2.27;;;2.10;;
1328;SDS011;658;48.820;9.354;2023-12-28T18:12:09;1.83;;;1.73;;
1328;SDS011;658;48.820;9.354;2023-12-28T18:16:10;2.03;;;1.93;;
1328;SDS011;658;48.820;9.354;2023-12-28T18:20:10;1.77;;;1.67;;
1328;SDS011;658;48.820;9.354;2023-12-28T18:24:11;2.20;;;1.93;;
1328;SDS011;658;48.820;9.354;2023-12-28T18:28:12;2.83;;;2.13;;
1328;SDS011;658;48.820;9.354;2023-12-28T18:32:14;2.00;;;1.80;;
1328;SDS011;658;48.820;9.354;2023-12-28T18:36:14;2.40;;;2.20;;
1328;SDS011;658;48.820;9.354;2023-12-28T18:40:18;2.07;;;1.90;;
1328;SDS011;658;48.820;9.354;2023-12-28T18:44:20;2.00;;;1.90;;
1328;SDS011;658;48.820;9.354;2023-12-28T18:48:21;2.80;;;1.80;;
1328;SDS011;658;48.820;9.354;2023-12-28T18:52:24;3.53;;;1.90;;
1328;SDS011;658;48.820;9.354;2023-12-28T18:56:24;2.03;;;1.70;;
1328;SDS011;658;48.820;9.354;2023-12-28T19:00:25;1.70;;;1.60;;
1328;SDS011;658;48.820;9.354;2023-12-28T19:04:25;1.83;;;1.73;;
1328;SDS011;658;48.820;9.354;2023-12-28T19:08:26;1.70;;;1.60;;
1328;SDS011;658;48.820;9.354;2023-12-28T19:12:30;2.53;;;1.80;;
1328;SDS011;658;48.820;9.354;2023-12-28T19:16:31;1.80;;;1.70;;
1328;SDS011;658;48.820;9.354;2023-12-28T19:20:34;1.67;;;1.57;;
1328;SDS011;658;48.820;9.354;2023-12-28T19:24:34;1.73;;;1.63;;
1328;SDS011;658;48.820;9.354;2023-12-28T19:28:35;1.80;;;1.70;;
1328;SDS011;658;48.820;9.354;2023-12-28T19:32:36;1.80;;;1.70;;
1328;SDS011;658;48.820;9.354;2023-12-28T19:36:36;1.83;;;1.60;;
1328;SDS011;658;48.820;9.354;2023-12-28T19:40:37;2.10;;;1.47;;
1328;SDS011;658;48.820;9.354;2023-12-28T19:44:37;2.93;;;1.80;;
1328;SDS011;658;48.820;9.354;2023-12-28T19:48:39;1.60;;;1.50;;
1328;SDS011;658;48.820;9.354;2023-12-28T19:52:40;2.03;;;1.80;;
1328;SDS011;658;48.820;9.354;2023-12-28T19:56:41;1.70;;;1.60;;
1328;SDS011;658;48.820;9.354;2023-12-28T20:00:42;1.70;;;1.60;;
1328;SDS011;658;48.820;9.354;2023-12-28T20:04:43;1.43;;;1.33;;
1328;SDS011;658;48.820;9.354;2023-12-28T20:08:43;1.83;;;1.70;;
1328;SDS011;658;48.820;9.354;2023-12-28T20:12:46;1.50;;;1.40;;
1328;SDS011;658;48.820;9.354;2023-12-28T20:16:46;1.17;;;1.17;;
1328;SDS011;658;48.820;9.354;2023-12-28T20:20:49;1.53;;;1.43;;
1328;SDS011;658;48.820;9.354;2023-12-28T20:24:52;1.57;;;1.30;;
1328;SDS011;658;48.820;9.354;2023-12-28T20:28:53;1.67;;;1.57;;
1328;SDS011;658;48.820;9.354;2023-12-28T20:32:54;1.40;;;1.30;;
1328;SDS011;658;48.820;9.354;2023-12-28T20:36:54;1.50;;;1.40;;
1328;SDS011;658;48.820;9.354;2023-12-28T20:40:57;1.13;;;1.10;;
1328;SDS011;658;48.820;9.354;2023-12-28T20:44:57;1.17;;;1.13;;
1328;SDS011;658;48.820;9.354;2023-12-28T20:48:58;1.40;;;1.30;;
1328;SDS011;658;48.820;9.354;2023-12-28T20:52:59;1.50;;;1.40;;
1328;SDS011;658;48.820;9.354;2023-12-28T20:56:59;1.23;;;1.13;;
1328;SDS011;658;48.820;9.354;2023-12-28T21:01:00;1.50;;;1.40;;
1328;SDS011;658;48.820;9.354;2023-12-28T21:05:01;1.30;;;1.20;;
1328;SDS011;658;48.820;9.354;2023-12-28T21:09:02;1.37;;;1.27;;
1328;SDS011;658;48.820;9.354;2023-12-28T21:13:03;1.60;;;1.50;;
1328;SDS011;658;48.820;9.354;2023-12-28T21:17:06;1.37;;;1.27;;
1328;SDS011;658;48.820;9.354;2023-12-28T21:21:07;1.40;;;1.40;;
1328;SDS011;658;48.820;9.354;2023-12-28T21:25:10;1.30;;;1.20;;
1328;SDS011;658;48.820;9.354;2023-12-28T21:29:12;3.40;;;1.30;;
1328;SDS011;658;48.820;9.354;2023-12-28T21:33:12;1.27;;;1.17;;
1328;SDS011;658;48.820;9.354;2023-12-28T21:37:13;1.30;;;1.20;;
1328;SDS011;658;48.820;9.354;2023-12-28T21:41:14;1.23;;;1.00;;
1328;SDS011;658;48.820;9.354;2023-12-28T21:45:14;1.40;;;1.30;;
1328;SDS011;658;48.820;9.354;2023-12-28T21:49:15;1.23;;;1.13;;
1328;SDS011;658;48.820;9.354;2023-12-28T21:53:16;1.20;;;1.17;;
1328;SDS011;658;48.820;9.354;2023-12-28T21:57:16;1.20;;;1.10;;
1328;SDS011;658;48.820;9.354;2023-12-28T22:01:17;1.43;;;1.33;;
1328;SDS011;658;48.820;9.354;2023-12-28T22:05:17;1.47;;;1.10;;
1328;SDS011;658;48.820;9.354;2023-12-28T22:09:18;1.03;;;1.03;;
1328;SDS011;658;48.820;9.354;2023-12-28T22:13:19;1.43;;;1.07;;
1328;SDS011;658;48.820;9.354;2023-12-28T22:17:20;1.30;;;1.20;;
1328;SDS011;658;48.820;9.354;2023-12-28T22:21:20;1.00;;;1.00;;
1328;SDS011;658;48.820;9.354;2023-12-28T22:25:21;1.13;;;1.13;;
1328;SDS011;658;48.820;9.354;2023-12-28T22:29:22;1.73;;;1.00;;
1328;SDS011;658;48.820;9.354;2023-12-28T22:33:25;1.00;;;1.00;;
1328;SDS011;658;48.820;9.354;2023-12-28T22:37:26;1.20;;;1.20;;
1328;SDS011;658;48.820;9.354;2023-12-28T22:41:26;1.53;;;1.10;;
1328;SDS011;658;48.820;9.354;2023-12-28T22:45:27;0.97;;;0.93;;
1328;SDS011;658;48.820;9.354;2023-12-28T22:49:27;0.90;;;0.90;;
1328;SDS011;658;48.820;9.354;2023-12-28T22:53:30;0.90;;;0.90;;
1328;SDS011;658;48.820;9.354;2023-12-28T22:57:31;0.97;;;0.97;;
1328;SDS011;658;48.820;9.354;2023-12-28T23:01:31;0.90;;;0.90;;
1328;SDS011;658;48.820;9.354;2023-12-28T23:05:32;0.80;;;0.80;;
1328;SDS011;658;48.820;9.354;2023-12-28T23:09:36;0.90;;;0.90;;
1328;SDS011;658;48.820;9.354;2023-12-28T23:13:36;0.90;;;0.90;;
1328;SDS011;658;48.820;9.354;2023-12-28T23:17:37;1.10;;;1.00;;
1328;SDS011;658;48.820;9.354;2023-12-28T23:21:38;1.00;;;1.00;;
1328;SDS011;658;48.820;9.354;2023-12-28T23:25:38;1.07;;;1.00;;
1328;SDS011;658;48.820;9.354;2023-12-28T23:29:39;0.93;;;0.80;;
1328;SDS011;658;48.820;9.354;2023-12-28T23:33:40;0.90;;;0.90;;
1328;SDS011;658;48.820;9.354;2023-12-28T23:37:40;2.13;;;1.20;;
1328;SDS011;658;48.820;9.354;2023-12-28T23:41:41;1.07;;;1.07;;
1328;SDS011;658;48.820;9.354;2023-12-28T23:45:41;1.10;;;1.10;;
1328;SDS011;658;48.820;9.354;2023-12-28T23:49:42;0.90;;;0.90;;
1328;SDS011;658;48.820;9.354;2023-12-28T23:53:43;0.97;;;0.97;;
1328;SDS011;658;48.820;9.354;2023-12-28T23:57:45;1.17;;;0.90;;
